.
WxDataArchive / Data Records for 2008-03-14
2008-03-13 March 2008 2008-03-15

Data Records for Friday, 14 March 2008

Time	Temp	Chill	HIndex	Humid	Dewpt	 Wind 	HiWind	WindDir	Rain 	Barom 
-----	----	-----	------	-----	-----	------	------	-------	-----	----- 
00:00	46.5	46.5	46.5	71	37.6	1	4	248	0.00	29.727 
00:05	46.5	46.5	46.5	71	37.6	1	4	248	0.00	29.726 
00:10	46.7	46.7	46.7	72	38.2	1	4	248	0.00	29.728 
00:15	46.7	46.7	46.7	72	38.2	1	5	248	0.00	29.726 
00:20	46.7	46.7	46.7	73	38.5	1	4	248	0.00	29.726 
00:25	46.5	46.5	46.5	73	38.3	1	4	248	0.00	29.728 
00:30	46.5	46.5	46.5	74	38.7	0	3	248	0.00	29.721 
00:35	46.4	46.4	46.4	74	38.6	0	3	248	0.00	29.717 
00:40	46.2	46.2	46.2	75	38.7	0	3	248	0.00	29.718 
00:45	46.1	46.1	46.1	75	38.6	0	2	248	0.00	29.718 
00:50	46.1	46.1	46.1	76	39.0	1	3	248	0.00	29.717 
00:55	45.8	45.8	45.8	76	38.7	0	2	248	0.00	29.720 
01:00	45.8	45.8	45.8	77	39.0	1	2	248	0.00	29.727 
01:05	45.8	45.8	45.8	77	39.0	1	5	248	0.00	29.727 
01:10	46.0	46.0	46.0	77	39.2	2	4	248	0.00	29.729 
01:15	46.1	46.1	46.1	77	39.3	2	5	248	0.00	29.731 
01:20	46.1	46.1	46.1	77	39.3	1	4	248	0.00	29.732 
01:25	46.1	46.1	46.1	77	39.3	1	4	248	0.00	29.732 
01:30	46.0	46.0	46.0	77	39.2	1	4	248	0.00	29.731 
01:35	46.0	46.0	46.0	77	39.2	1	3	248	0.00	29.731 
01:40	45.8	45.8	45.8	77	39.0	1	4	248	0.00	29.729 
01:45	45.8	45.8	45.8	77	39.0	0	2	248	0.00	29.726 
01:50	45.7	45.7	45.7	77	38.9	0	2	248	0.00	29.721 
01:55	45.5	45.5	45.5	77	38.7	0	1	248	0.00	29.719 
02:00	45.2	45.2	45.2	78	38.8	0	1	248	0.00	29.725 
02:05	45.1	45.1	45.1	78	38.7	0	1	248	0.00	29.721 
02:10	44.8	44.8	44.8	79	38.7	0	1	248	0.00	29.716 
02:15	44.6	44.6	44.6	80	38.8	0	1	248	0.00	29.713 
02:20	44.5	44.5	44.5	80	38.7	0	1	248	0.00	29.708 
02:25	44.3	44.3	44.3	80	38.5	0	1	248	0.00	29.706 
02:30	44.3	44.3	44.3	80	38.5	0	2	248	0.00	29.708 
02:35	44.3	44.3	44.3	80	38.5	0	1	248	0.00	29.711 
02:40	44.3	44.3	44.3	80	38.5	0	2	248	0.00	29.711 
02:45	44.5	44.5	44.5	80	38.7	0	1	248	0.00	29.712 
02:50	44.5	44.5	44.5	79	38.4	0	3	248	0.00	29.709 
02:55	44.5	44.5	44.5	79	38.4	0	1	248	0.00	29.703 
03:00	44.3	44.3	44.3	79	38.2	1	4	248	0.00	29.702 
03:05	44.2	44.2	44.2	80	38.4	0	2	248	0.00	29.699 
03:10	44.1	44.1	44.1	80	38.3	0	2	248	0.00	29.699 
03:15	43.9	43.9	43.9	80	38.1	0	1	248	0.00	29.698 
03:20	43.8	43.8	43.8	80	38.0	1	4	112	0.00	29.698 
03:25	43.8	43.8	43.8	81	38.4	0	2	68	0.00	29.697 
03:30	43.8	43.8	43.8	81	38.4	1	3	248	0.00	29.698 
03:35	43.8	43.8	43.8	81	38.4	1	3	248	0.00	29.698 
03:40	43.8	43.8	43.8	81	38.4	0	2	248	0.00	29.693 
03:45	43.6	43.6	43.6	82	38.5	0	2	248	0.00	29.685 
03:50	43.5	43.5	43.5	82	38.4	0	2	248	0.00	29.683 
03:55	43.3	43.3	43.3	83	38.5	0	1	248	0.00	29.682 
04:00	43.2	43.2	43.2	84	38.7	0	3	90	0.00	29.676 
04:05	43.1	43.1	43.1	84	38.6	0	1	90	0.00	29.672 
04:10	42.9	42.9	42.9	84	38.4	0	2	90	0.00	29.670 
04:15	42.9	42.9	42.9	85	38.7	0	2	90	0.00	29.671 
04:20	42.8	42.8	42.8	85	38.6	0	2	90	0.00	29.672 
04:25	42.8	42.8	42.8	85	38.6	0	1	90	0.00	29.672 
04:30	42.6	42.6	42.6	86	38.7	0	1	90	0.00	29.669 
04:35	42.5	42.5	42.5	86	38.6	0	1	90	0.00	29.669 
04:40	42.3	42.3	42.3	86	38.4	0	0	---	0.00	29.668 
04:45	42.3	42.3	42.3	87	38.7	0	1	90	0.00	29.671 
04:50	42.2	42.2	42.2	87	38.6	0	1	90	0.00	29.675 
04:55	42.1	42.1	42.1	87	38.5	0	2	90	0.00	29.678 
05:00	41.9	41.9	41.9	87	38.3	0	1	90	0.00	29.677 
05:05	41.8	41.8	41.8	87	38.2	0	1	90	0.00	29.676 
05:10	41.5	41.5	41.5	88	38.2	0	0	---	0.00	29.674 
05:15	41.2	41.2	41.2	88	37.9	0	0	---	0.00	29.674 
05:20	40.9	40.9	40.9	88	37.6	0	0	---	0.00	29.676 
05:25	40.8	40.8	40.8	88	37.5	0	0	---	0.00	29.674 
05:30	40.6	40.6	40.6	89	37.6	0	1	90	0.00	29.674 
05:35	40.5	40.5	40.5	89	37.5	0	0	---	0.00	29.673 
05:40	40.5	40.5	40.5	90	37.8	0	0	---	0.00	29.670 
05:45	40.5	40.5	40.5	90	37.8	0	0	---	0.00	29.670 
05:50	40.5	40.5	40.5	90	37.8	0	0	---	0.00	29.670 
05:55	40.3	40.3	40.3	90	37.6	0	0	---	0.00	29.670 
06:00	40.3	40.3	40.3	91	37.9	0	0	---	0.00	29.672 
06:05	40.2	40.2	40.2	91	37.8	0	0	---	0.00	29.675 
06:10	40.1	40.1	40.1	91	37.7	0	0	---	0.00	29.676 
06:15	39.9	39.9	39.9	91	37.5	0	0	---	0.00	29.675 
06:20	39.8	39.8	39.8	91	37.4	0	0	---	0.00	29.676 
06:25	39.5	39.5	39.5	91	37.1	0	0	---	0.00	29.675 
06:30	39.2	39.2	39.2	91	36.8	0	0	---	0.00	29.678 
06:35	39.1	39.1	39.1	91	36.7	0	0	---	0.00	29.679 
06:40	38.8	38.8	38.8	92	36.7	0	0	---	0.00	29.679 
06:45	38.8	38.8	38.8	92	36.7	0	0	---	0.00	29.679 
06:50	38.6	38.6	38.6	92	36.5	0	0	---	0.00	29.682 
06:55	38.5	38.5	38.5	92	36.4	0	0	---	0.00	29.685 
07:00	38.3	38.3	38.3	92	36.2	0	0	---	0.00	29.686 
07:05	38.2	38.2	38.2	92	36.1	0	0	---	0.00	29.689 
07:10	38.0	38.0	38.0	92	35.9	0	0	---	0.00	29.689 
07:15	37.8	37.8	37.8	92	35.7	0	0	---	0.00	29.689 
07:20	37.6	37.6	37.6	92	35.5	0	0	---	0.00	29.692 
07:25	37.6	37.6	37.6	93	35.8	0	0	---	0.00	29.694 
07:30	37.5	37.5	37.5	93	35.7	0	0	---	0.00	29.694 
07:35	37.3	37.3	37.3	93	35.5	0	0	---	0.00	29.694 
07:40	37.3	37.3	37.3	93	35.5	0	0	---	0.00	29.694 
07:45	37.3	37.3	37.3	93	35.5	0	0	---	0.00	29.695 
07:50	37.5	37.5	37.5	93	35.7	0	0	---	0.00	29.693 
07:55	37.6	37.6	37.6	94	36.0	0	0	---	0.00	29.688 
08:00	37.9	37.9	37.9	94	36.3	0	0	---	0.00	29.690 
08:05	38.0	38.0	38.0	94	36.4	0	0	---	0.00	29.691 
08:10	38.3	38.3	38.3	94	36.7	0	0	---	0.00	29.692 
08:15	38.6	38.6	38.6	94	37.0	0	0	---	0.00	29.693 
08:20	39.1	39.1	39.1	95	37.8	0	0	---	0.00	29.693 
08:25	39.6	39.6	39.6	95	38.3	0	0	---	0.00	29.695 
08:30	39.9	39.9	39.9	95	38.6	0	0	---	0.00	29.695 
08:35	40.2	40.2	40.2	95	38.9	0	0	---	0.00	29.695 
08:40	40.5	40.5	40.5	95	39.2	0	0	---	0.00	29.695 
08:45	40.9	40.9	40.9	95	39.6	0	0	---	0.00	29.693 
08:50	41.2	41.2	41.2	94	39.6	0	0	---	0.00	29.693 
08:55	41.5	41.5	41.5	94	39.9	0	0	---	0.00	29.693 
09:00	41.8	41.8	41.8	93	39.9	0	1	90	0.00	29.693 
09:05	42.2	42.2	42.2	93	40.3	0	1	90	0.00	29.693 
09:10	42.8	42.8	42.8	92	40.6	0	1	90	0.00	29.692 
09:15	43.6	43.6	43.6	91	41.1	0	1	90	0.00	29.692 
09:20	44.5	44.5	44.5	90	41.8	0	1	90	0.00	29.690 
09:25	45.2	45.2	45.2	87	41.6	0	1	90	0.00	29.688 
09:30	45.7	45.7	45.7	84	41.1	0	1	90	0.00	29.686 
09:35	46.1	46.1	46.1	82	40.9	0	1	90	0.00	29.684 
09:40	46.5	46.5	46.5	81	41.0	1	2	90	0.00	29.680 
09:45	46.7	46.7	46.7	79	40.5	0	2	68	0.00	29.681 
09:50	46.8	46.8	46.8	79	40.6	0	2	68	0.00	29.681 
09:55	47.0	47.0	47.0	78	40.5	0	2	270	0.00	29.680 
10:00	47.1	47.1	47.1	77	40.3	0	2	270	0.00	29.678 
10:05	47.4	47.4	47.4	76	40.2	0	1	270	0.00	29.674 
10:10	47.7	47.7	47.7	77	40.8	0	1	270	0.00	29.673 
10:15	48.2	48.2	48.2	75	40.7	0	2	270	0.00	29.672 
10:20	48.6	48.6	48.6	74	40.7	0	1	270	0.00	29.670 
10:25	48.9	48.9	48.9	73	40.6	0	1	270	0.00	29.669 
10:30	49.6	49.6	49.6	73	41.3	0	1	270	0.00	29.666 
10:35	49.9	49.9	49.9	69	40.1	1	2	270	0.00	29.668 
10:40	49.9	49.9	49.9	71	40.9	0	2	270	0.00	29.668 
10:45	50.2	50.2	50.2	69	40.4	0	3	270	0.00	29.669 
10:50	50.5	50.5	50.5	70	41.1	1	3	270	0.00	29.669 
10:55	51.1	51.1	51.1	68	40.9	1	2	270	0.00	29.667 
11:00	51.3	51.3	51.3	67	40.7	1	3	248	0.00	29.666 
11:05	51.1	51.1	51.1	66	40.1	0	2	248	0.00	29.660 
11:10	51.4	51.4	51.4	67	40.8	0	3	248	0.00	29.654 
11:15	51.7	51.7	51.7	64	39.9	0	3	248	0.00	29.652 
11:20	52.0	52.0	52.0	66	41.0	1	3	248	0.00	29.650 
11:25	51.9	51.9	51.9	63	39.7	1	2	248	0.00	29.649 
11:30	51.7	51.7	51.7	64	39.9	0	1	248	0.00	29.647 
11:35	51.7	51.7	51.7	64	39.9	0	3	248	0.00	29.645 
11:40	52.2	52.2	52.2	66	41.2	0	1	248	0.00	29.640 
11:45	52.3	52.3	52.3	62	39.7	0	2	248	0.00	29.642 
11:50	52.6	52.6	52.6	61	39.5	1	3	270	0.00	29.637 
11:55	52.6	52.6	52.6	59	38.7	1	2	248	0.00	29.635 
12:00	52.6	52.6	52.6	60	39.1	1	4	248	0.00	29.634 
12:05	52.8	52.8	52.8	59	38.9	1	4	248	0.00	29.632 
12:10	52.9	52.9	52.9	59	39.0	1	2	248	0.00	29.624 
12:15	52.8	52.8	52.8	58	38.4	0	2	248	0.00	29.622 
12:20	53.1	53.1	53.1	57	38.3	1	3	248	0.00	29.621 
12:25	53.5	53.5	53.5	56	38.2	1	2	270	0.00	29.617 
12:30	53.5	53.5	53.5	56	38.2	0	2	315	0.00	29.615 
12:35	53.8	53.8	53.8	56	38.5	1	3	315	0.00	29.612 
12:40	54.2	54.2	54.2	54	37.9	1	3	248	0.00	29.608 
12:45	54.4	54.4	54.4	53	37.6	1	6	248	0.00	29.604 
12:50	54.1	54.1	54.1	53	37.4	1	3	225	0.00	29.603 
12:55	53.8	53.8	53.8	54	37.5	0	2	338	0.00	29.602 
13:00	53.9	53.9	53.9	55	38.1	0	2	338	0.00	29.600 
13:05	54.1	54.1	54.1	56	38.8	1	4	248	0.00	29.598 
13:10	54.2	54.2	54.2	54	37.9	1	2	248	0.00	29.594 
13:15	54.4	54.4	54.4	54	38.1	0	4	248	0.00	29.591 
13:20	54.7	54.7	54.7	55	38.9	1	6	248	0.00	29.589 
13:25	55.0	55.0	55.0	56	39.6	0	2	292	0.00	29.588 
13:30	55.1	55.1	55.1	57	40.1	1	3	315	0.00	29.587 
13:35	55.3	55.3	55.3	57	40.3	1	4	292	0.00	29.587 
13:40	55.1	55.1	55.1	56	39.7	1	4	315	0.00	29.587 
13:45	54.8	54.8	54.8	59	40.7	1	3	270	0.00	29.586 
13:50	55.4	55.4	55.4	57	40.4	1	4	270	0.00	29.586 
13:55	55.3	55.3	55.3	56	39.9	1	3	292	0.00	29.587 
14:00	55.4	55.4	55.4	55	39.5	1	3	0	0.00	29.586 
14:05	55.6	55.6	55.6	52	38.3	1	5	338	0.00	29.586 
14:10	55.4	55.4	55.4	54	39.0	1	4	292	0.00	29.586 
14:15	55.4	55.4	55.4	54	39.0	1	3	0	0.00	29.584 
14:20	55.6	55.6	55.6	55	39.7	1	3	0	0.00	29.580 
14:25	55.9	55.9	55.9	53	39.0	1	4	270	0.00	29.579 
14:30	55.9	55.9	55.9	52	38.5	1	3	45	0.00	29.576 
14:35	56.0	56.0	56.0	55	40.1	0	3	68	0.00	29.574 
14:40	56.3	56.3	56.3	51	38.4	0	3	68	0.00	29.576 
14:45	56.2	56.2	56.2	51	38.3	1	4	225	0.00	29.576 
14:50	55.6	55.6	55.6	51	37.8	1	4	270	0.00	29.574 
14:55	56.0	56.0	56.0	52	38.6	0	2	292	0.00	29.573 
15:00	56.5	56.5	56.5	48	37.0	1	3	292	0.00	29.572 
15:05	56.5	56.5	56.5	46	36.0	1	4	248	0.00	29.573 
15:10	56.5	56.5	56.5	46	36.0	1	2	248	0.00	29.572 
15:15	56.3	56.3	56.3	48	36.9	1	3	248	0.00	29.576 
15:20	55.7	55.7	55.7	50	37.3	1	3	315	0.00	29.577 
15:25	55.4	55.4	55.4	49	36.6	1	3	292	0.00	29.579 
15:30	55.1	55.1	55.1	49	36.3	1	3	292	0.00	29.582 
15:35	54.8	54.8	54.8	49	36.0	1	4	338	0.00	29.582 
15:40	54.7	54.7	54.7	50	36.4	1	2	0	0.00	29.586 
15:45	54.5	54.5	54.5	50	36.2	1	4	292	0.00	29.587 
15:50	54.5	54.5	54.5	50	36.2	1	2	292	0.00	29.588 
15:55	54.5	54.5	54.5	50	36.2	1	3	270	0.00	29.590 
16:00	54.7	54.7	54.7	48	35.4	0	2	292	0.00	29.589 
16:05	55.1	55.1	55.1	47	35.2	1	3	292	0.00	29.592 
16:10	55.6	55.6	55.6	47	35.7	0	1	292	0.00	29.595 
16:15	55.7	55.7	55.7	45	34.7	1	2	292	0.00	29.594 
16:20	55.7	55.7	55.7	42	33.0	1	4	270	0.00	29.595 
16:25	55.7	55.7	55.7	41	32.4	0	2	0	0.00	29.594 
16:30	55.9	55.9	55.9	40	31.9	0	1	338	0.00	29.595 
16:35	55.7	55.7	55.7	38	30.5	0	2	338	0.00	29.596 
16:40	55.4	55.4	55.4	36	28.9	0	1	338	0.00	29.598 
16:45	55.3	55.3	55.3	38	30.1	0	1	338	0.00	29.602 
16:50	55.1	55.1	55.1	38	30.0	0	1	338	0.00	29.602 
16:55	54.8	54.8	54.8	39	30.3	0	1	338	0.00	29.601 
17:00	54.7	54.7	54.7	39	30.2	0	1	338	0.00	29.604 
17:05	54.7	54.7	54.7	40	30.9	0	0	---	0.00	29.606 
17:10	54.7	54.7	54.7	41	31.5	0	2	338	0.00	29.607 
17:15	54.7	54.7	54.7	42	32.1	0	1	338	0.00	29.606 
17:20	54.8	54.8	54.8	43	32.7	0	2	315	0.00	29.606 
17:25	54.8	54.8	54.8	42	32.2	0	3	315	0.00	29.607 
17:30	55.0	55.0	55.0	41	31.7	0	1	315	0.00	29.607 
17:35	55.0	55.0	55.0	43	32.9	0	2	248	0.00	29.608 
17:40	54.8	54.8	54.8	43	32.7	0	1	248	0.00	29.608 
17:45	54.5	54.5	54.5	44	33.0	0	1	248	0.00	29.609 
17:50	54.4	54.4	54.4	45	33.5	0	1	248	0.00	29.610 
17:55	54.2	54.2	54.2	46	33.9	0	1	248	0.00	29.612 
18:00	54.1	54.1	54.1	46	33.8	0	1	248	0.00	29.616 
18:05	53.9	53.9	53.9	46	33.6	0	1	248	0.00	29.621 
18:10	53.8	53.8	53.8	46	33.5	0	1	248	0.00	29.623 
18:15	53.5	53.5	53.5	47	33.8	0	0	---	0.00	29.624 
18:20	53.2	53.2	53.2	47	33.5	0	0	---	0.00	29.625 
18:25	52.8	52.8	52.8	48	33.7	0	1	248	0.00	29.627 
18:30	52.6	52.6	52.6	48	33.5	0	0	---	0.00	29.628 
18:35	52.2	52.2	52.2	49	33.6	0	0	---	0.00	29.628 
18:40	51.7	51.7	51.7	50	33.7	0	0	---	0.00	29.629 
18:45	51.1	51.1	51.1	51	33.6	0	0	---	0.00	29.635 
18:50	50.7	50.7	50.7	52	33.7	0	0	---	0.00	29.638 
18:55	50.1	50.1	50.1	52	33.2	0	0	---	0.00	29.640 
19:00	49.5	49.5	49.5	54	33.6	0	0	---	0.00	29.640 
19:05	48.9	48.9	48.9	54	33.0	0	0	---	0.00	29.641 
19:10	48.2	48.2	48.2	56	33.2	0	0	---	0.00	29.642 
19:15	47.6	47.6	47.6	57	33.1	0	0	---	0.00	29.642 
19:20	47.0	47.0	47.0	58	33.0	0	0	---	0.00	29.645 
19:25	46.2	46.2	46.2	60	33.1	0	0	---	0.00	29.646 
19:30	45.7	45.7	45.7	62	33.4	0	0	---	0.00	29.647 
19:35	45.2	45.2	45.2	62	33.0	0	0	---	0.00	29.649 
19:40	44.8	44.8	44.8	63	33.0	0	0	---	0.00	29.650 
19:45	44.2	44.2	44.2	65	33.2	0	0	---	0.00	29.650 
19:50	43.8	43.8	43.8	66	33.2	0	0	---	0.00	29.649 
19:55	43.3	43.3	43.3	67	33.1	0	0	---	0.00	29.651 
20:00	42.8	42.8	42.8	67	32.6	0	0	---	0.00	29.653 
20:05	42.2	42.2	42.2	68	32.4	0	0	---	0.00	29.653 
20:10	41.8	41.8	41.8	69	32.4	0	0	---	0.00	29.657 
20:15	41.5	41.5	41.5	70	32.5	0	0	---	0.00	29.661 
20:20	41.2	41.2	41.2	71	32.5	0	0	---	0.00	29.664 
20:25	40.9	40.9	40.9	72	32.6	0	0	---	0.00	29.664 
20:30	40.6	40.6	40.6	73	32.6	0	0	---	0.00	29.665 
20:35	40.3	40.3	40.3	73	32.3	0	0	---	0.00	29.666 
20:40	40.1	40.1	40.1	74	32.5	0	0	---	0.00	29.666 
20:45	39.9	39.9	39.9	75	32.6	0	0	---	0.00	29.668 
20:50	39.6	39.6	39.6	75	32.3	0	0	---	0.00	29.670 
20:55	39.5	39.5	39.5	76	32.6	0	0	---	0.00	29.670 
21:00	39.3	39.3	39.3	77	32.7	0	0	---	0.00	29.672 
21:05	39.3	39.3	39.3	77	32.7	0	0	---	0.00	29.670 
21:10	39.2	39.2	39.2	78	32.9	0	0	---	0.00	29.669 
21:15	39.3	39.3	39.3	79	33.3	0	0	---	0.00	29.670 
21:20	39.3	39.3	39.3	79	33.3	0	0	---	0.00	29.673 
21:25	39.5	39.5	39.5	79	33.5	0	0	---	0.00	29.671 
21:30	39.5	39.5	39.5	79	33.5	0	0	---	0.00	29.669 
21:35	39.5	39.5	39.5	79	33.5	0	0	---	0.00	29.671 
21:40	39.5	39.5	39.5	79	33.5	0	0	---	0.00	29.672 
21:45	39.3	39.3	39.3	79	33.3	0	0	---	0.00	29.674 
21:50	39.3	39.3	39.3	79	33.3	0	0	---	0.00	29.673 
21:55	39.2	39.2	39.2	80	33.6	0	0	---	0.00	29.676 
22:00	39.1	39.1	39.1	80	33.5	0	0	---	0.00	29.677 
22:05	38.9	38.9	38.9	80	33.3	0	0	---	0.00	29.675 
22:10	38.9	38.9	38.9	80	33.3	0	0	---	0.00	29.676 
22:15	38.9	38.9	38.9	81	33.6	0	0	---	0.00	29.681 
22:20	39.2	39.2	39.2	80	33.6	0	0	---	0.00	29.685 
22:25	39.1	39.1	39.1	80	33.5	0	0	---	0.00	29.685 
22:30	38.9	38.9	38.9	80	33.3	0	0	---	0.00	29.688 
22:35	38.9	38.9	38.9	80	33.3	0	0	---	0.00	29.689 
22:40	38.8	38.8	38.8	80	33.2	0	0	---	0.00	29.691 
22:45	38.9	38.9	38.9	81	33.6	0	0	---	0.00	29.693 
22:50	38.8	38.8	38.8	81	33.5	0	0	---	0.00	29.694 
22:55	38.6	38.6	38.6	81	33.3	0	0	---	0.00	29.693 
23:00	38.5	38.5	38.5	81	33.2	0	0	---	0.00	29.691 
23:05	38.3	38.3	38.3	81	33.0	0	0	---	0.00	29.689 
23:10	38.3	38.3	38.3	82	33.3	0	0	---	0.00	29.692 
23:15	38.2	38.2	38.2	82	33.2	0	0	---	0.00	29.692 
23:20	38.2	38.2	38.2	82	33.2	0	0	---	0.00	29.695 
23:25	37.9	37.9	37.9	82	32.9	0	0	---	0.00	29.693 
23:30	37.9	37.9	37.9	83	33.2	0	0	---	0.00	29.696 
23:35	37.8	37.8	37.8	83	33.1	0	0	---	0.00	29.702 
23:40	37.6	37.6	37.6	84	33.2	0	0	---	0.00	29.703 
23:45	37.6	37.6	37.6	84	33.2	0	0	---	0.00	29.705 
23:50	37.5	37.5	37.5	84	33.1	0	0	---	0.00	29.704 
23:55	37.3	37.3	37.3	84	32.9	0	0	---	0.00	29.705 

CoCoRaHS
IN-AL-39
A2 Web Hosting
Creative Commons License
GoDaddy
Look for:

loaded 2017-10-16 18:09:58 • last modified 2010-11-18 10:43:29
Privacy PolicyDisclaimer
• wx.awcolley.com is powered by PmWiki v.2002016 •
• all content (unless otherwise noted) © 2017 A W Colley